Chipmans Point, Vermont
Current Conditions -  °F | °C
As of 3:15 PM on Saturday 25 Oct 2014 (Local Time) from K6B0 Reporting Station
Broken Clouds Broken Clouds  
Wind Chill: 57°   Ceiling: 4600
Heat Index: 57°   Visibility: 10mi
Dew Point: 41°   Wind: 7mph
Humidity: 54%   Direction: 200°SSW
Pressure: 29.61"   Gusts: NA
Location:  43.7849°N, 73.292°W
Report Text: K6B0 251915Z AUTO 20006KT 10SM BKN046 14/05 A2961 RMK AO2 T01400049
Loading
Personal Weather Stations






























Interactive Weather Map
Tropical Storm Tracking
New forecast layout! Learn more

10-Day Weather Forecast

Advertisements
Track Severe Weather on mobile